Time;durP1;ratioP1;P1;durP2;ratioP2;P2;SDS_P1;SDS_P2;PMS_P1;PMS_P2;Temp;Humidity;BMP_temperature;BMP_pressure;BME280_temperature;BME280_humidity;BME280_pressure;Samples;Min_cycle;Max_cycle;Signal;HPM_P1;HPM_P2
2022/05/10 00:00:10;;;;;;;1.48;1.38;;;;;;;11.24;58.98;95106.50;5031374;28;20298;-74
2022/05/10 00:02:37;;;;;;;1.70;1.08;;;;;;;11.29;58.44;95109.06;5031022;28;20224;-74
2022/05/10 00:05:06;;;;;;;3.15;1.30;;;;;;;11.29;59.61;95102.84;5031070;28;20251;-74
2022/05/10 00:07:37;;;;;;;3.60;1.83;;;;;;;11.28;60.05;95101.25;5030940;28;20221;-74
2022/05/10 00:10:07;;;;;;;3.67;1.40;;;;;;;11.20;60.84;95100.13;5031242;28;20199;-74
2022/05/10 00:12:34;;;;;;;3.55;1.70;;;;;;;11.02;61.67;95095.81;5030494;28;20270;-75
2022/05/10 00:15:01;;;;;;;3.42;1.52;;;;;;;10.88;62.32;95097.88;5030520;28;20200;-74
2022/05/10 00:17:33;;;;;;;7.93;1.40;;;;;;;10.84;62.86;95102.34;5030717;28;20699;-74
2022/05/10 00:20:00;;;;;;;2.78;1.45;;;;;;;10.72;62.91;95096.75;5030521;28;20223;-74
2022/05/10 00:22:27;;;;;;;1.50;1.30;;;;;;;10.73;62.39;95098.34;5031186;28;20200;-74
2022/05/10 00:24:56;;;;;;;1.63;1.30;;;;;;;10.63;62.70;95102.94;5047688;28;20207;-74
2022/05/10 00:27:23;;;;;;;3.78;2.00;;;;;;;10.51;62.69;95104.69;5039441;28;20207;-74
2022/05/10 00:29:50;;;;;;;2.88;1.85;;;;;;;10.58;62.67;95100.38;5030584;28;20217;-75
2022/05/10 00:32:17;;;;;;;2.45;1.40;;;;;;;10.66;63.15;95101.50;5030368;28;20204;-74
2022/05/10 00:34:44;;;;;;;2.80;1.83;;;;;;;10.64;62.92;95104.56;5030982;28;20197;-74
2022/05/10 00:37:12;;;;;;;2.50;1.60;;;;;;;10.63;63.29;95104.88;5019429;28;20220;-74
2022/05/10 00:39:39;;;;;;;2.30;1.05;;;;;;;10.66;62.94;95101.50;5033075;28;20231;-74
2022/05/10 00:42:16;;;;;;;2.55;1.42;;;;;;;10.54;63.39;95096.69;5038642;28;20287;-74
2022/05/10 00:44:49;;;;;;;5.25;2.75;;;;;;;10.50;64.06;95103.88;5047446;28;20314;-75
2022/05/10 00:47:25;;;;;;;8.57;2.38;;;;;;;10.38;64.13;95109.09;5036691;28;20188;-75
2022/05/10 00:50:03;;;;;;;4.32;1.67;;;;;;;10.46;64.35;95102.91;5030353;28;20659;-75
2022/05/10 00:52:38;;;;;;;2.22;1.63;;;;;;;10.56;64.16;95108.03;5030986;28;20193;-75
2022/05/10 00:55:11;;;;;;;4.43;1.83;;;;;;;10.57;63.56;95101.50;5042081;28;20203;-75
2022/05/10 00:57:45;;;;;;;6.75;1.70;;;;;;;10.54;63.97;95099.41;5033686;28;20193;-75
2022/05/10 01:00:26;;;;;;;6.07;1.42;;;;;;;10.48;64.69;95097.97;5034498;28;20710;-75
2022/05/10 01:03:04;;;;;;;2.05;1.63;;;;;;;10.49;64.91;95098.78;5034608;28;20224;-75
2022/05/10 01:05:39;;;;;;;3.22;1.90;;;;;;;10.46;65.35;95111.03;5034321;28;20235;-75
2022/05/10 01:08:13;;;;;;;3.08;1.88;;;;;;;10.28;65.72;95098.53;5034567;28;20642;-75
2022/05/10 01:10:45;;;;;;;2.90;1.80;;;;;;;10.31;65.88;95100.63;5034181;28;20223;-74
2022/05/10 01:13:24;;;;;;;2.10;1.52;;;;;;;10.24;66.24;95089.47;5034260;28;20199;-74
2022/05/10 01:15:59;;;;;;;4.40;1.50;;;;;;;10.18;66.41;95091.50;5034338;28;20235;-75
2022/05/10 01:18:26;;;;;;;5.93;1.77;;;;;;;10.10;67.05;95088.75;5033952;28;20196;-74
2022/05/10 01:20:59;;;;;;;6.70;2.38;;;;;;;10.04;67.35;95079.16;5033854;28;20626;-74
2022/05/10 01:23:45;;;;;;;1.77;1.50;;;;;;;10.05;67.52;95086.19;5034050;28;20203;-75
2022/05/10 01:26:20;;;;;;;3.03;1.98;;;;;;;9.96;68.06;95089.66;5033601;28;20284;-75
2022/05/10 01:28:53;;;;;;;8.80;1.80;;;;;;;9.96;67.51;95088.84;5033879;28;20199;-75
2022/05/10 01:31:26;;;;;;;2.45;1.80;;;;;;;9.90;68.06;95088.19;5033942;28;20200;-74
2022/05/10 01:33:56;;;;;;;7.47;2.00;;;;;;;9.98;67.53;95082.00;5034016;28;20228;-75
2022/05/10 01:36:30;;;;;;;2.03;1.55;;;;;;;9.95;67.89;95088.06;5033822;28;20203;-74
2022/05/10 01:39:05;;;;;;;3.08;1.73;;;;;;;9.95;67.96;95084.56;5033888;28;20203;-74
2022/05/10 01:41:43;;;;;;;4.18;1.73;;;;;;;9.94;68.02;95081.03;5021003;28;20223;-74
2022/05/10 01:44:18;;;;;;;2.53;1.88;;;;;;;9.78;68.07;95085.28;5043895;28;20262;-74
2022/05/10 01:46:47;;;;;;;3.83;2.22;;;;;;;9.62;68.66;95078.66;5033654;28;20196;-74
2022/05/10 01:49:24;;;;;;;5.05;2.47;;;;;;;9.71;68.86;95087.59;5033671;28;20238;-75
2022/05/10 01:51:57;;;;;;;5.47;2.30;;;;;;;9.67;68.77;95083.16;5033103;28;20279;-75
2022/05/10 01:55:05;;;;;;;2.80;1.73;;;;;;;9.72;68.13;95091.91;5033360;28;20679;-75
2022/05/10 01:57:37;;;;;;;4.65;2.00;;;;;;;9.79;67.56;95089.56;5037363;28;20214;-74
2022/05/10 02:00:13;;;;;;;2.10;1.65;;;;;;;9.85;67.42;95082.91;5041538;28;20603;-75
2022/05/10 02:02:45;;;;;;;7.70;1.92;;;;;;;9.79;67.71;95078.75;5033360;28;20302;-75
2022/05/10 02:05:17;;;;;;;3.95;2.10;;;;;;;9.85;67.95;95082.91;5032952;28;20590;-75
2022/05/10 02:07:48;;;;;;;5.50;2.80;;;;;;;9.77;68.98;95082.88;5032874;28;20648;-75
2022/05/10 02:10:22;;;;;;;4.85;1.90;;;;;;;9.73;69.54;95079.97;5032794;28;20227;-74
2022/05/10 02:12:56;;;;;;;3.35;1.70;;;;;;;9.61;70.29;95090.56;5033173;28;20191;-75
2022/05/10 02:15:31;;;;;;;3.00;1.80;;;;;;;9.51;70.51;95082.72;5032682;28;20188;-75
2022/05/10 02:18:03;;;;;;;2.47;1.85;;;;;;;9.48;70.88;95083.34;5033495;28;20192;-74
2022/05/10 02:20:36;;;;;;;5.43;2.40;;;;;;;9.39;70.92;95079.78;5032869;28;20224;-74
2022/05/10 02:23:08;;;;;;;7.35;2.53;;;;;;;9.42;70.56;95095.41;5032492;28;20200;-74
2022/05/10 02:25:38;;;;;;;4.55;1.75;;;;;;;9.36;70.76;95092.03;5020781;28;20192;-75
2022/05/10 02:28:13;;;;;;;4.20;2.40;;;;;;;9.50;70.39;95081.13;5032533;28;20643;-74
2022/05/10 02:30:42;;;;;;;2.30;1.50;;;;;;;9.49;70.28;95084.94;5032382;28;20223;-73
2022/05/10 02:33:13;;;;;;;2.58;1.70;;;;;;;9.40;70.10;95081.41;5032379;28;20614;-74
2022/05/10 02:35:44;;;;;;;5.10;2.08;;;;;;;9.34;70.28;95082.63;5032935;28;20197;-74
2022/05/10 02:38:14;;;;;;;3.15;2.00;;;;;;;9.41;69.90;95083.00;5032815;28;20204;-74
2022/05/10 02:40:42;;;;;;;2.38;1.70;;;;;;;9.45;69.72;95081.25;5032701;28;20236;-73
2022/05/10 02:43:12;;;;;;;2.40;1.92;;;;;;;9.43;69.87;95080.78;5023432;28;20246;-74
2022/05/10 02:45:42;;;;;;;5.13;1.70;;;;;;;9.46;70.15;95080.16;5036964;28;20292;-73
2022/05/10 02:48:15;;;;;;;3.05;2.00;;;;;;;9.34;70.49;95082.63;5032009;28;20204;-74
2022/05/10 02:50:42;;;;;;;3.17;1.92;;;;;;;9.35;70.65;95084.22;5034349;28;20192;-75
2022/05/10 02:53:09;;;;;;;2.45;1.75;;;;;;;9.33;70.69;95081.00;5043366;28;20232;-75
2022/05/10 02:55:43;;;;;;;5.13;2.13;;;;;;;9.43;70.73;95086.19;5032429;28;20204;-75
2022/05/10 02:58:15;;;;;;;6.20;2.25;;;;;;;9.43;71.00;95086.19;5032277;28;20254;-74
2022/05/10 03:00:44;;;;;;;3.10;2.08;;;;;;;9.46;70.66;95086.34;5044293;28;20314;-74
2022/05/10 03:03:18;;;;;;;6.40;2.45;;;;;;;9.48;70.65;95088.75;5032011;28;20211;-74
2022/05/10 03:05:45;;;;;;;2.60;1.70;;;;;;;9.45;70.26;95090.16;5032177;28;20208;-75
2022/05/10 03:08:12;;;;;;;4.05;2.42;;;;;;;9.48;70.54;95089.56;5032140;28;20206;-74
2022/05/10 03:10:39;;;;;;;3.65;2.17;;;;;;;9.32;70.61;95090.22;5032014;28;20200;-75
2022/05/10 03:13:06;;;;;;;6.75;1.80;;;;;;;9.13;71.44;95099.34;5032218;28;20231;-74
2022/05/10 03:15:33;;;;;;;5.55;2.22;;;;;;;8.98;72.23;95091.59;5044870;28;20220;-75
2022/05/10 03:18:01;;;;;;;2.08;1.55;;;;;;;9.22;71.56;95092.09;5031882;28;20210;-75
2022/05/10 03:20:28;;;;;;;2.88;1.92;;;;;;;9.43;70.87;95080.78;5031444;28;20591;-75
2022/05/10 03:22:55;;;;;;;4.60;2.40;;;;;;;9.74;69.88;95086.19;5032013;28;20204;-75
2022/05/10 03:25:23;;;;;;;11.38;4.55;;;;;;;10.21;68.90;95084.69;5031672;28;20200;-75
2022/05/10 03:27:49;;;;;;;8.80;4.07;;;;;;;10.54;67.85;95082.34;5031629;28;20216;-75
2022/05/10 03:30:18;;;;;;;11.95;4.82;;;;;;;10.88;67.11;95082.41;5031782;28;20250;-75
2022/05/10 03:32:45;;;;;;;9.90;3.92;;;;;;;11.40;65.68;95094.03;5031778;28;20208;-75
2022/05/10 03:35:16;;;;;;;4.28;2.75;;;;;;;12.05;63.76;95087.53;5031331;28;20200;-74
2022/05/10 03:37:43;;;;;;;8.85;2.58;;;;;;;12.65;62.13;95083.72;5033758;28;20201;-75
2022/05/10 03:40:11;;;;;;;3.97;2.15;;;;;;;13.24;59.82;95083.66;5042244;28;20267;-74
2022/05/10 03:42:43;;;;;;;3.22;2.20;;;;;;;13.59;58.19;95094.22;5029681;28;20674;-75
2022/05/10 03:45:11;;;;;;;3.45;1.92;;;;;;;13.97;57.59;95089.34;5029168;28;20227;-75
2022/05/10 03:47:38;;;;;;;8.57;2.55;;;;;;;14.44;56.45;95080.81;5029974;28;20203;-75
2022/05/10 03:50:07;;;;;;;6.47;2.90;;;;;;;14.77;55.40;95088.84;5030988;28;20196;-75
2022/05/10 03:52:35;;;;;;;7.28;2.55;;;;;;;15.39;53.53;95082.91;5028024;28;20196;-74
2022/05/10 03:55:03;;;;;;;13.85;2.50;;;;;;;16.05;52.10;95076.13;5027639;28;20199;-74
2022/05/10 03:57:30;;;;;;;4.32;2.38;;;;;;;16.06;51.13;95084.00;5031211;28;20218;-74
2022/05/10 03:59:57;;;;;;;4.80;2.97;;;;;;;16.53;50.62;95091.44;5031055;28;20765;-71
2022/05/10 04:02:24;;;;;;;4.63;2.30;;;;;;;16.81;48.95;95080.41;5030682;28;20624;-73
2022/05/10 04:04:50;;;;;;;3.55;2.38;;;;;;;17.72;47.52;95078.84;5013014;28;20201;-77
2022/05/10 04:07:17;;;;;;;4.60;2.50;;;;;;;18.47;45.87;95077.44;5016361;28;20239;-73
2022/05/10 04:09:46;;;;;;;5.53;3.10;;;;;;;17.99;46.30;95074.28;5031252;28;20208;-73
2022/05/10 04:12:12;;;;;;;8.27;3.00;;;;;;;18.73;44.81;95073.97;5036336;28;20211;-75
2022/05/10 04:14:39;;;;;;;8.77;3.35;;;;;;;18.47;45.17;95078.25;5050435;28;20203;-74
2022/05/10 04:17:06;;;;;;;3.80;3.13;;;;;;;19.21;43.90;95079.78;5031937;28;20215;-74
2022/05/10 04:19:33;;;;;;;7.05;3.15;;;;;;;19.89;43.02;95074.00;5030615;28;20204;-74
2022/05/10 04:22:00;;;;;;;7.40;3.28;;;;;;;20.50;41.83;95070.72;5030855;28;20297;-76
2022/05/10 04:24:27;;;;;;;5.72;3.58;;;;;;;20.23;42.25;95074.75;5030538;28;20681;-74
2022/05/10 04:26:55;;;;;;;4.57;3.05;;;;;;;20.91;41.65;95073.38;5042349;28;20231;-74
2022/05/10 04:29:22;;;;;;;5.97;2.80;;;;;;;21.28;41.49;95068.56;5029016;28;20590;-75
2022/05/10 04:31:49;;;;;;;7.03;3.10;;;;;;;21.47;39.94;95077.69;5031720;28;20200;-73
2022/05/10 04:34:16;;;;;;;7.25;3.25;;;;;;;21.87;38.06;95069.22;5033892;28;20223;-74
2022/05/10 04:36:44;;;;;;;6.85;3.30;;;;;;;21.52;38.93;95074.59;5034443;28;20193;-74
2022/05/10 04:39:11;;;;;;;7.63;3.45;;;;;;;21.43;38.62;95066.69;5033248;28;20215;-74
2022/05/10 04:41:37;;;;;;;5.18;3.20;;;;;;;;;;5034531;28;20235;-75
2022/05/10 04:44:08;;;;;;;6.68;3.38;;;;;;;21.36;38.46;95066.63;5032602;28;20691;-75
2022/05/10 04:46:36;;;;;;;7.40;4.20;;;;;;;21.36;38.62;95065.84;5031504;28;20200;-74
2022/05/10 04:49:04;;;;;;;5.97;3.95;;;;;;;21.81;37.72;95075.50;5033592;28;20208;-75
2022/05/10 04:51:31;;;;;;;7.93;3.72;;;;;;;22.26;36.48;95071.34;5034073;28;20201;-75
2022/05/10 04:53:59;;;;;;;5.60;3.53;;;;;;;22.34;36.53;95081.19;5033619;28;20627;-74
2022/05/10 04:56:26;;;;;;;5.88;3.88;;;;;;;22.83;35.74;95074.16;5033461;28;20291;-74
2022/05/10 04:58:54;;;;;;;4.15;3.05;;;;;;;22.40;36.60;95079.66;5033847;28;20236;-74
2022/05/10 05:01:26;;;;;;;4.68;3.10;;;;;;;22.57;36.72;95084.38;5034472;28;20317;-74
2022/05/10 05:03:55;;;;;;;6.22;3.55;;;;;;;22.78;36.29;95078.13;5034078;28;20192;-75
2022/05/10 05:06:24;;;;;;;4.85;2.92;;;;;;;23.65;34.44;95072.84;5033980;28;20220;-74
2022/05/10 05:08:51;;;;;;;10.18;3.72;;;;;;;23.34;35.18;95076.47;5033781;28;20212;-73
2022/05/10 05:11:18;;;;;;;8.10;3.42;;;;;;;23.87;34.60;95078.31;5033625;28;20204;-76
2022/05/10 05:13:45;;;;;;;5.55;3.17;;;;;;;24.86;33.18;95068.63;5034305;28;20212;-76
2022/05/10 05:16:12;;;;;;;5.18;3.38;;;;;;;25.42;31.78;95073.66;5034329;28;20540;-75
2022/05/10 05:18:40;;;;;;;5.40;3.72;;;;;;;25.67;31.39;95073.44;5033603;28;20200;-77
2022/05/10 05:21:07;;;;;;;6.70;3.60;;;;;;;26.34;30.54;95068.25;5045143;28;20243;-75
2022/05/10 05:23:34;;;;;;;7.65;3.67;;;;;;;26.13;30.62;95067.28;5029009;28;20220;-76
2022/05/10 05:26:01;;;;;;;7.93;3.05;;;;;;;26.22;30.68;95072.38;5026288;28;20225;-75
2022/05/10 05:28:29;;;;;;;5.85;4.13;;;;;;;26.18;29.94;95072.41;5034008;28;20699;-77
2022/05/10 05:30:56;;;;;;;6.15;3.58;;;;;;;26.98;29.08;95064.50;5033712;28;20200;-77
2022/05/10 05:33:23;;;;;;;7.80;3.53;;;;;;;24.89;31.94;95068.59;5034525;28;20208;-77
2022/05/10 05:35:51;;;;;;;6.53;3.38;;;;;;;25.29;31.26;95064.28;5033482;28;20208;-77
2022/05/10 05:38:18;;;;;;;11.32;3.50;;;;;;;25.62;30.68;95065.56;5021119;28;20231;-77
2022/05/10 05:40:45;;;;;;;6.75;3.33;;;;;;;25.78;30.22;95063.00;5033829;28;20196;-77
2022/05/10 05:43:18;;;;;;;4.32;3.00;;;;;;;26.50;29.31;95057.31;5037598;28;20195;-77
2022/05/10 05:45:45;;;;;;;6.00;3.05;;;;;;;27.18;28.55;95051.47;5038679;28;20319;-77
2022/05/10 05:48:12;;;;;;;6.65;3.20;;;;;;;26.53;29.47;95059.22;5033746;28;20515;-77
2022/05/10 05:50:39;;;;;;;5.03;3.00;;;;;;;26.27;29.16;95059.97;5033100;28;20210;-77
2022/05/10 05:53:07;;;;;;;5.10;3.38;;;;;;;26.90;29.37;95053.50;5033713;28;20208;-77
2022/05/10 05:55:34;;;;;;;4.45;3.20;;;;;;;27.10;28.13;95044.44;5035451;28;20208;-77
2022/05/10 05:58:01;;;;;;;5.22;3.00;;;;;;;26.74;28.72;95056.13;5044593;28;20691;-76
2022/05/10 06:00:28;;;;;;;4.25;2.90;;;;;;;25.89;29.29;95068.41;5033624;28;20274;-78
2022/05/10 06:02:56;;;;;;;4.70;3.70;;;;;;;25.60;30.52;95061.59;5033828;28;20232;-76
2022/05/10 06:05:25;;;;;;;4.65;2.85;;;;;;;25.88;29.13;95060.50;5033549;28;20227;-78
2022/05/10 06:07:52;;;;;;;6.82;3.13;;;;;;;24.65;30.94;95069.56;5033052;28;20228;-77
2022/05/10 06:10:20;;;;;;;3.72;2.90;;;;;;;26.58;29.24;95053.22;5033177;28;20208;-77
2022/05/10 06:12:47;;;;;;;5.15;3.10;;;;;;;27.28;28.56;95050.47;5033233;28;20648;-78
2022/05/10 06:15:18;;;;;;;12.30;3.92;;;;;;;27.45;28.31;95049.38;5036479;28;20215;-76
2022/05/10 06:17:47;;;;;;;6.85;3.70;;;;;;;26.75;28.74;95052.16;5042648;28;20207;-78
2022/05/10 06:20:18;;;;;;;6.60;3.97;;;;;;;27.06;28.52;95049.28;5032789;28;20560;-79
2022/05/10 06:22:45;;;;;;;6.95;3.92;;;;;;;28.17;27.44;95049.53;5033120;28;20246;-77
2022/05/10 06:25:15;;;;;;;7.53;3.65;;;;;;;27.31;28.75;95055.19;5032725;28;20626;-77
2022/05/10 06:27:43;;;;;;;6.60;3.80;;;;;;;28.00;27.85;95058.28;5033179;28;20282;-77
2022/05/10 06:30:12;;;;;;;4.85;3.28;;;;;;;27.57;28.14;95057.13;5033190;28;20208;-77
2022/05/10 06:32:39;;;;;;;6.15;3.53;;;;;;;26.07;29.59;95063.44;5032586;28;20208;-74
2022/05/10 06:35:08;;;;;;;5.55;3.33;;;;;;;26.40;29.60;95064.56;5032790;28;20204;-78
2022/05/10 06:40:20;;;;;;;5.05;3.45;;;;;;;26.51;28.80;95070.00;5032723;28;20326;-78
2022/05/10 06:42:48;;;;;;;6.72;3.67;;;;;;;25.79;30.16;95063.78;5033445;28;20243;-75
2022/05/10 06:45:19;;;;;;;5.50;3.38;;;;;;;25.05;30.50;95055.00;5041838;28;20232;-75
2022/05/10 06:47:49;;;;;;;5.03;3.03;;;;;;;25.18;30.84;95062.81;5032640;28;20195;-77
2022/05/10 06:50:18;;;;;;;6.82;3.28;;;;;;;25.84;29.51;95054.97;5032751;28;20678;-75
2022/05/10 06:52:45;;;;;;;6.38;3.35;;;;;;;27.80;28.12;95042.34;5032111;28;20208;-77
2022/05/10 06:55:12;;;;;;;7.20;3.78;;;;;;;28.91;26.16;95030.34;5031739;28;20204;-76
2022/05/10 06:57:39;;;;;;;9.73;3.53;;;;;;;26.14;29.28;95068.88;5032188;28;20738;-75
2022/05/10 07:00:11;;;;;;;13.70;4.20;;;;;;;25.99;29.70;95061.94;5032387;28;20212;-76
2022/05/10 07:02:38;;;;;;;5.80;3.50;;;;;;;27.31;27.54;95049.63;5031803;28;20227;-78
2022/05/10 07:05:06;;;;;;;8.60;3.60;;;;;;;26.76;28.74;95052.94;5044688;28;20223;-77
2022/05/10 07:07:33;;;;;;;8.65;3.58;;;;;;;26.53;28.61;95051.69;5019346;28;20211;-77
2022/05/10 07:10:00;;;;;;;5.38;2.90;;;;;;;26.62;28.40;95053.16;5031609;28;20209;-76
2022/05/10 07:12:27;;;;;;;4.88;3.60;;;;;;;27.10;27.25;95050.00;5032108;28;20200;-77
2022/05/10 07:14:54;;;;;;;7.75;2.88;;;;;;;27.82;26.44;95047.50;5031754;28;20288;-77
2022/05/10 07:17:22;;;;;;;4.65;3.00;;;;;;;28.45;26.76;95036.19;5031281;28;20205;-78
2022/05/10 07:19:49;;;;;;;6.82;3.15;;;;;;;27.26;27.94;95041.78;5031351;28;20208;-77
2022/05/10 07:22:16;;;;;;;5.30;2.95;;;;;;;26.89;27.87;95040.78;5031782;28;20258;-73
2022/05/10 07:24:43;;;;;;;7.80;3.33;;;;;;;26.50;29.73;95040.63;5032321;28;20225;-79
2022/05/10 07:27:09;;;;;;;7.38;3.05;;;;;;;26.70;29.26;95043.50;5031559;28;20235;-76
2022/05/10 07:29:37;;;;;;;9.15;3.70;;;;;;;26.71;28.53;95045.84;5031995;28;20226;-77
2022/05/10 07:32:04;;;;;;;8.18;2.92;;;;;;;25.87;29.44;95053.38;5031624;28;20214;-77
2022/05/10 07:34:33;;;;;;;5.47;2.95;;;;;;;26.53;28.95;95039.78;5033756;28;20205;-78
2022/05/10 07:36:59;;;;;;;5.50;2.70;;;;;;;25.90;29.14;95053.31;5042533;28;20212;-76
2022/05/10 07:39:26;;;;;;;7.85;2.70;;;;;;;26.11;28.26;95055.03;5031655;28;20204;-78
2022/05/10 07:41:54;;;;;;;3.13;2.15;;;;;;;24.74;29.46;95056.81;5031791;28;20235;-76
2022/05/10 07:44:21;;;;;;;7.00;2.40;;;;;;;25.24;29.74;95050.88;5042061;28;20333;-76
2022/05/10 07:46:48;;;;;;;8.80;2.50;;;;;;;25.03;28.76;95046.31;5031617;28;20200;-76
2022/05/10 07:49:15;;;;;;;7.30;2.70;;;;;;;25.83;29.24;95045.09;5031631;28;20208;-78
2022/05/10 07:51:43;;;;;;;3.42;2.05;;;;;;;24.83;29.19;95058.34;5031359;28;20204;-77
2022/05/10 07:54:10;;;;;;;1.70;1.00;;;;;;;24.90;26.12;95048.00;5031265;28;20211;-78
2022/05/10 07:56:38;;;;;;;4.93;1.92;;;;;;;24.21;28.83;95056.38;5031294;28;20231;-77
2022/05/10 07:59:05;;;;;;;3.92;2.45;;;;;;;24.66;29.25;95054.53;5031087;28;20207;-77
2022/05/10 08:01:32;;;;;;;6.25;2.20;;;;;;;24.77;28.72;95044.94;5031508;28;20204;-79
2022/05/10 08:03:58;;;;;;;5.40;1.95;;;;;;;24.54;28.81;95041.97;5031335;28;20232;-78
2022/05/10 08:06:26;;;;;;;3.70;1.90;;;;;;;24.76;29.13;95043.34;5030201;28;20209;-77
2022/05/10 08:08:55;;;;;;;5.38;1.45;;;;;;;23.45;28.17;95051.56;5031481;28;20208;-77
2022/05/10 08:11:22;;;;;;;4.70;1.98;;;;;;;23.82;30.19;95049.06;5030663;28;20625;-75
2022/05/10 08:13:49;;;;;;;2.58;1.80;;;;;;;23.35;27.89;95051.19;5031052;28;20211;-77
2022/05/10 08:16:16;;;;;;;5.47;1.20;;;;;;;24.73;25.25;95041.41;5031219;28;20201;-77
2022/05/10 08:18:48;;;;;;;5.70;2.10;;;;;;;24.65;28.78;95036.31;5031067;28;20210;-76
2022/05/10 08:21:16;;;;;;;4.68;1.70;;;;;;;24.06;26.82;95037.06;5031706;28;20232;-78
2022/05/10 08:23:43;;;;;;;5.90;1.52;;;;;;;23.71;26.90;95040.03;5030505;28;20232;-78
2022/05/10 08:26:11;;;;;;;2.05;1.70;;;;;;;23.74;27.48;95044.78;5031251;28;20225;-79
2022/05/10 08:28:39;;;;;;;2.35;1.45;;;;;;;24.36;26.12;95038.50;5030810;28;20555;-78
2022/05/10 08:31:07;;;;;;;3.65;1.70;;;;;;;25.19;26.30;95026.34;5031052;28;20200;-77
2022/05/10 08:33:39;;;;;;;3.70;2.00;;;;;;;24.14;27.28;95039.81;5031276;28;20212;-79
2022/05/10 08:36:08;;;;;;;5.10;1.60;;;;;;;23.90;28.20;95028.50;5030672;28;20200;-77
2022/05/10 08:38:35;;;;;;;3.75;1.80;;;;;;;24.49;27.60;95028.53;5031022;28;20200;-77
2022/05/10 08:41:06;;;;;;;5.95;1.88;;;;;;;24.42;28.63;95034.13;5030929;28;20199;-77
2022/05/10 08:43:40;;;;;;;2.05;1.42;;;;;;;23.91;27.28;95026.50;5037517;28;20226;-77
2022/05/10 08:46:10;;;;;;;2.45;1.70;;;;;;;24.40;28.24;95026.22;5033606;28;20568;-76
2022/05/10 08:48:37;;;;;;;5.57;2.40;;;;;;;25.17;26.54;95025.97;5031119;28;20208;-77
2022/05/10 08:51:05;;;;;;;5.00;2.00;;;;;;;23.88;28.31;95032.84;5031256;28;20204;-78
2022/05/10 08:53:33;;;;;;;3.75;2.05;;;;;;;24.54;28.49;95024.53;5030777;28;20200;-78
2022/05/10 08:56:05;;;;;;;4.38;1.90;;;;;;;24.01;28.54;95025.66;5030287;28;20255;-77
2022/05/10 08:58:47;;;;;;;2.30;1.58;;;;;;;24.18;28.62;95032.28;5031033;28;20189;-79
2022/05/10 09:01:19;;;;;;;4.57;1.60;;;;;;;23.61;28.74;95030.59;5019602;28;20196;-76
2022/05/10 09:03:53;;;;;;;3.53;1.80;;;;;;;22.95;29.66;95035.09;5030098;28;20745;-75
2022/05/10 09:06:34;;;;;;;2.40;1.40;;;;;;;22.77;30.90;95031.53;5030431;28;20220;-77
2022/05/10 09:09:12;;;;;;;4.22;1.80;;;;;;;23.58;30.35;95019.53;5030189;28;20196;-78
2022/05/10 09:11:48;;;;;;;2.63;1.73;;;;;;;24.33;29.01;95011.63;5029945;28;20275;-78
2022/05/10 09:14:16;;;;;;;1.83;1.50;;;;;;;24.31;28.77;95008.50;5030713;28;20223;-79
2022/05/10 09:16:43;;;;;;;2.83;1.88;;;;;;;23.98;29.10;95010.63;5030399;28;20668;-78
2022/05/10 09:19:12;;;;;;;2.78;1.60;;;;;;;23.35;30.54;95001.44;5033332;28;20204;-78
2022/05/10 09:21:47;;;;;;;3.83;2.00;;;;;;;23.96;29.91;95007.47;5033940;28;20229;-77
2022/05/10 09:24:25;;;;;;;2.53;1.70;;;;;;;23.33;30.67;95014.84;5033481;28;20708;-76
2022/05/10 09:26:56;;;;;;;2.83;1.50;;;;;;;23.31;30.17;95014.47;5033354;28;20258;-78
2022/05/10 09:29:32;;;;;;;3.67;2.17;;;;;;;22.76;31.16;95002.31;5033821;28;20192;-78
2022/05/10 09:34:55;;;;;;;3.17;1.88;;;;;;;23.11;30.93;95007.00;5033962;28;20192;-73
2022/05/10 09:37:25;;;;;;;2.88;1.60;;;;;;;22.53;31.56;95006.28;5020481;28;20248;-72
2022/05/10 09:40:07;;;;;;;1.75;1.50;;;;;;;22.70;31.53;94999.16;5032863;28;20280;-76
2022/05/10 09:42:36;;;;;;;4.75;1.63;;;;;;;22.73;31.61;94997.56;5033692;28;20297;-79
2022/05/10 09:45:07;;;;;;;3.40;1.95;;;;;;;22.46;32.01;95006.28;5043986;28;20290;-77
2022/05/10 09:47:35;;;;;;;7.07;1.85;;;;;;;22.41;32.08;95003.91;5046982;28;20208;-75
2022/05/10 09:50:14;;;;;;;1.83;1.65;;;;;;;22.34;33.08;94999.16;5033381;28;20204;-78
2022/05/10 09:52:41;;;;;;;3.83;1.98;;;;;;;22.82;31.02;94996.03;5033291;28;20232;-77
2022/05/10 09:55:11;;;;;;;3.20;2.03;;;;;;;23.18;32.10;94991.22;5034006;28;20224;-77
2022/05/10 09:57:39;;;;;;;2.58;1.67;;;;;;;23.50;30.56;94985.56;5038868;28;20203;-77
2022/05/10 10:00:15;;;;;;;3.58;1.75;;;;;;;23.78;31.03;94984.66;5041058;28;20524;-77
2022/05/10 10:02:43;;;;;;;3.47;1.73;;;;;;;23.90;31.95;94975.91;5033214;28;20208;-79
2022/05/10 10:05:22;;;;;;;2.92;1.95;;;;;;;23.58;30.02;94980.81;5033820;28;20205;-78
2022/05/10 10:07:50;;;;;;;3.80;1.90;;;;;;;24.21;30.88;94978.84;5033574;28;20193;-79
2022/05/10 10:10:21;;;;;;;3.78;1.67;;;;;;;23.82;30.88;94968.81;5035614;28;20236;-73
2022/05/10 10:12:49;;;;;;;3.80;2.15;;;;;;;23.28;31.02;94979.31;5043540;28;20200;-80
2022/05/10 10:15:26;;;;;;;1.70;1.52;;;;;;;22.67;31.63;94967.59;5032783;28;20643;-73
2022/05/10 10:17:55;;;;;;;7.50;2.22;;;;;;;22.86;31.04;94968.38;5033178;28;20193;-70
2022/05/10 10:20:32;;;;;;;3.45;1.77;;;;;;;22.48;32.80;94965.25;5032985;28;20204;-78
2022/05/10 10:23:03;;;;;;;2.45;1.95;;;;;;;22.00;32.46;94966.81;5033213;28;20238;-78
2022/05/10 10:25:40;;;;;;;4.25;1.90;;;;;;;22.41;32.15;94958.94;5020603;28;20221;-78
2022/05/10 10:28:17;;;;;;;3.08;2.33;;;;;;;22.61;33.14;94955.38;5032478;28;20702;-78
2022/05/10 10:30:52;;;;;;;2.47;1.80;;;;;;;23.17;31.89;94952.91;5031996;28;20567;-78
2022/05/10 10:33:27;;;;;;;2.85;1.77;;;;;;;23.47;30.65;94947.66;5033134;28;20195;-78
2022/05/10 10:35:59;;;;;;;3.20;1.90;;;;;;;23.84;30.56;94933.25;5032388;28;20247;-75
2022/05/10 10:38:32;;;;;;;3.13;1.77;;;;;;;23.99;30.39;94940.25;5020452;28;20208;-77
2022/05/10 10:41:04;;;;;;;5.25;2.72;;;;;;;24.48;30.09;94943.84;5032514;28;20200;-78
2022/05/10 10:43:39;;;;;;;3.17;1.92;;;;;;;23.78;28.63;94945.91;5039257;28;20222;-79
2022/05/10 10:46:23;;;;;;;3.80;2.05;;;;;;;24.23;28.88;94934.97;5034998;28;20187;-78
2022/05/10 10:48:55;;;;;;;2.42;1.90;;;;;;;23.74;30.07;94928.56;5032673;28;20224;-78
2022/05/10 10:51:26;;;;;;;3.35;2.00;;;;;;;23.93;29.17;94930.00;5020348;28;20196;-78
2022/05/10 10:53:53;;;;;;;5.10;2.03;;;;;;;23.98;28.92;94922.06;5032704;28;20199;-78
2022/05/10 10:56:53;;;;;;;3.58;1.80;;;;;;;24.63;29.29;94917.59;5032643;28;20266;-79
2022/05/10 10:59:36;;;;;;;2.47;1.60;;;;;;;24.00;28.68;94914.16;5025386;28;20205;-72
2022/05/10 11:02:25;;;;;;;2.40;1.80;;;;;;;24.71;28.83;94913.56;5032541;28;20242;-77
2022/05/10 11:05:18;;;;;;;2.70;1.60;;;;;;;24.71;28.29;94919.09;5032712;28;20223;-80
2022/05/10 11:07:55;;;;;;;3.10;1.83;;;;;;;24.61;28.53;94908.91;5020796;28;20664;-78
2022/05/10 11:10:40;;;;;;;3.47;1.83;;;;;;;24.24;28.59;94906.09;5032306;28;20231;-78
2022/05/10 11:13:15;;;;;;;3.25;1.63;;;;;;;23.29;29.78;94909.00;5031680;28;20596;-72
2022/05/10 11:15:53;;;;;;;3.92;1.70;;;;;;;23.20;30.24;94910.66;5018778;28;20207;-75
2022/05/10 11:18:34;;;;;;;3.55;1.92;;;;;;;23.21;30.39;94901.94;5031855;28;20192;-75
2022/05/10 11:21:29;;;;;;;1.95;1.60;;;;;;;22.97;28.33;94911.09;5031814;28;20235;-71
2022/05/10 11:24:07;;;;;;;2.95;1.88;;;;;;;23.49;27.82;94900.22;5018270;28;20228;-77
2022/05/10 11:26:46;;;;;;;2.20;1.73;;;;;;;24.36;27.77;94891.72;5031797;28;20595;-78
2022/05/10 11:29:41;;;;;;;3.22;1.77;;;;;;;24.45;26.66;94897.59;5031380;28;20671;-74
2022/05/10 11:32:23;;;;;;;3.08;1.60;;;;;;;24.43;26.43;94880.59;5006870;28;20211;-77
2022/05/10 11:35:20;;;;;;;1.50;1.40;;;;;;;24.66;24.81;94877.19;5031000;28;20254;-78
2022/05/10 11:37:52;;;;;;;1.60;1.50;;;;;;;24.52;26.28;94878.13;5016841;28;20280;-79
2022/05/10 11:41:04;;;;;;;2.92;1.80;;;;;;;24.43;25.07;94875.06;5031449;28;20262;-75
2022/05/10 11:44:05;;;;;;;2.28;1.40;;;;;;;24.26;27.96;94870.47;5011069;28;20664;-75
2022/05/10 11:47:02;;;;;;;1.48;1.35;;;;;;;24.70;25.65;94862.13;5011471;28;20219;-75
2022/05/10 11:49:55;;;;;;;3.63;1.60;;;;;;;24.97;25.16;94855.91;4967887;28;20201;-79
2022/05/10 11:52:51;;;;;;;3.78;1.58;;;;;;;24.66;25.91;94866.13;5027017;28;20200;-77
2022/05/10 11:55:24;;;;;;;3.78;1.95;;;;;;;24.17;26.77;94853.53;5031717;28;20223;-75
2022/05/10 11:57:54;;;;;;;2.10;1.90;;;;;;;24.47;26.93;94848.09;5018867;28;20287;-76